Hasabi II — ZCPG3 — position and weather

sailwx.info

Track history (hours):
 
Tides and Currents Weather Stations Pressure Air Temp Water Temp Dewpoint Dewpoint Depression Visibility Wind Speed Wind Dir Waves Ship Positions

Hasabi II

Last reported at 2017-Sep-24 14:41 UTC. Time now 2017-Nov-19 07:05 UTC.
Position N 37°58' E 023°34'.
Warning: this ship's position is 55 days out of date.

Length 58 m; draft 3 m.

Type: Ship (hazmat cat C). MMSI: 319022000.

Date/timePositionNaut miles runAvg speedWind from/ knotsBaromVisibWave heightAir tempDewpointWater temp
2017-Sep-24 14:41N 37°58' E 023°34'0 0.0
2017-Sep-24 14:30N 37°58' E 023°34'2 4.0
2017-Sep-24 14:00N 37°56' E 023°36'510.2
2017-Sep-24 13:30N 37°52' E 023°39'510.0
2017-Sep-24 13:00N 37°47' E 023°42'55 9.3
2017-Sep-24 07:07N 37°23' E 024°44'1 9.9
2017-Sep-24 07:00N 37°23' E 024°45'5 9.7
2017-Sep-24 06:30N 37°21' E 024°51'5 9.5
2017-Sep-24 06:00N 37°19' E 024°56'5 9.6
2017-Sep-24 05:30N 37°18' E 025°02'5 9.7
2017-Sep-24 05:00N 37°18' E 025°08'5 9.9
2017-Sep-24 04:30N 37°17' E 025°14'5 9.9
2017-Sep-24 04:00N 37°16' E 025°21'5 9.8
2017-Sep-24 03:30N 37°15' E 025°27'5 9.1
2017-Sep-24 03:00N 37°14' E 025°32'5 8.9
2017-Sep-24 02:26N 37°12' E 025°38'4 9.6
2017-Sep-24 02:00N 37°11' E 025°43'  
2017-Sep-17 00:49N 37°12' E 025°50'3 9.8
2017-Sep-17 00:30N 37°14' E 025°46'11 9.8
2017-Sep-16 23:25N 37°18' E 025°34'4 9.8
2017-Sep-16 23:00N 37°19' E 025°29'5 9.9
2017-Sep-16 22:30N 37°21' E 025°24'5 9.9
2017-Sep-16 22:00N 37°23' E 025°18'4 8.8
2017-Sep-16 21:30N 37°27' E 025°17'2 0.1
2017-Sep-15 16:25N 37°27' E 025°20'0 0.0
2017-Sep-15 15:59N 37°27' E 025°20'0 0.0
2017-Sep-15 15:30N 37°27' E 025°20'0 0.1
2017-Sep-15 15:00N 37°27' E 025°20'3 6.2
2017-Sep-15 14:30N 37°24' E 025°18'4 8.8
2017-Sep-15 14:00N 37°24' E 025°23'2 3.5
2017-Sep-15 13:30N 37°26' E 025°25'0 0.0
2017-Sep-15 13:00N 37°26' E 025°25'0 0.0
2017-Sep-15 12:30N 37°26' E 025°25'0 0.0
2017-Sep-15 12:00N 37°26' E 025°25'0 0.0
2017-Sep-15 11:30N 37°26' E 025°25'0 0.0
2017-Sep-15 11:00N 37°26' E 025°25'0 0.1
2017-Sep-15 10:30N 37°26' E 025°25'0 0.0
2017-Sep-15 10:00N 37°26' E 025°25'0 0.0
2017-Sep-15 09:30N 37°26' E 025°25'0 0.0
2017-Sep-15 09:00N 37°26' E 025°25'0 0.0
2017-Sep-15 08:30N 37°26' E 025°25'0 0.0
2017-Sep-15 08:00N 37°26' E 025°25'1 2.0
2017-Sep-15 07:30N 37°25' E 025°25'3 6.8
2017-Sep-15 07:00N 37°25' E 025°20'0 0.1
2017-Sep-15 06:30N 37°25' E 025°20'0 0.0
2017-Sep-15 05:58N 37°25' E 025°20'0 0.0
2017-Sep-15 05:30N 37°25' E 025°20'0 0.0
2017-Sep-15 05:00N 37°25' E 025°20'0 0.0
2017-Sep-15 04:30N 37°25' E 025°20'0 0.0
2017-Sep-15 04:00N 37°25' E 025°20'0 0.0
2017-Sep-15 03:30N 37°25' E 025°20'0 0.0
2017-Sep-15 03:00N 37°25' E 025°20'0 0.0
2017-Sep-15 02:30N 37°25' E 025°20'0 0.0
2017-Sep-15 02:00N 37°25' E 025°20'0 0.0
2017-Sep-15 01:30N 37°25' E 025°20'0 0.0
2017-Sep-15 01:00N 37°25' E 025°20'0 0.0
2017-Sep-15 00:30N 37°25' E 025°20'0 0.0
2017-Sep-15 00:00N 37°25' E 025°20'0 0.0
2017-Sep-14 23:30N 37°25' E 025°20'0 0.0
2017-Sep-14 23:00N 37°25' E 025°20'0 0.0
2017-Sep-14 22:30N 37°25' E 025°20'0 0.0
2017-Sep-14 22:00N 37°25' E 025°20'0 0.0
2017-Sep-14 21:30N 37°25' E 025°20'0 0.1
2017-Sep-14 21:00N 37°25' E 025°20'0 0.0
2017-Sep-14 20:30N 37°25' E 025°20'0 0.0
2017-Sep-14 20:00N 37°25' E 025°20'0 0.0
2017-Sep-14 19:30N 37°25' E 025°20'0 0.0
2017-Sep-14 19:00N 37°25' E 025°20'0 0.0
2017-Sep-14 18:30N 37°25' E 025°20'0 0.1
2017-Sep-14 18:00N 37°25' E 025°20'0 0.0
2017-Sep-14 17:30N 37°25' E 025°20'0 0.0
2017-Sep-14 17:00N 37°25' E 025°20'0 0.1
2017-Sep-14 16:30N 37°25' E 025°20'0 0.1
2017-Sep-14 16:00N 37°25' E 025°20'0 0.1
2017-Sep-14 15:30N 37°25' E 025°20'0 0.0
2017-Sep-14 15:00N 37°25' E 025°20'  
Track history (hours):
 
Tides and Currents Weather Stations Pressure Air Temp Water Temp Dewpoint Dewpoint Depression Visibility Wind Speed Wind Dir Waves Ship Positions

Hasabi II

Last reported at 2017-Sep-24 14:41 UTC. Time now 2017-Nov-19 07:05 UTC.
Position N 37°58' E 023°34'.
Warning: this ship's position is 55 days out of date.

Length 58 m; draft 3 m.

Type: Ship (hazmat cat C). MMSI: 319022000.

Date/timePositionNaut miles runAvg speedWind from/ knotsBaromVisibWave heightAir tempDewpointWater temp
2017-Sep-24 14:41N 37°58' E 023°34'0 0.0
2017-Sep-24 14:30N 37°58' E 023°34'2 4.0
2017-Sep-24 14:00N 37°56' E 023°36'510.2
2017-Sep-24 13:30N 37°52' E 023°39'510.0
2017-Sep-24 13:00N 37°47' E 023°42'55 9.3
2017-Sep-24 07:07N 37°23' E 024°44'1 9.9
2017-Sep-24 07:00N 37°23' E 024°45'5 9.7
2017-Sep-24 06:30N 37°21' E 024°51'5 9.5
2017-Sep-24 06:00N 37°19' E 024°56'5 9.6
2017-Sep-24 05:30N 37°18' E 025°02'5 9.7
2017-Sep-24 05:00N 37°18' E 025°08'5 9.9
2017-Sep-24 04:30N 37°17' E 025°14'5 9.9
2017-Sep-24 04:00N 37°16' E 025°21'5 9.8
2017-Sep-24 03:30N 37°15' E 025°27'5 9.1
2017-Sep-24 03:00N 37°14' E 025°32'5 8.9
2017-Sep-24 02:26N 37°12' E 025°38'4 9.6
2017-Sep-24 02:00N 37°11' E 025°43'  
2017-Sep-17 00:49N 37°12' E 025°50'3 9.8
2017-Sep-17 00:30N 37°14' E 025°46'11 9.8
2017-Sep-16 23:25N 37°18' E 025°34'4 9.8
2017-Sep-16 23:00N 37°19' E 025°29'5 9.9
2017-Sep-16 22:30N 37°21' E 025°24'5 9.9
2017-Sep-16 22:00N 37°23' E 025°18'4 8.8
2017-Sep-16 21:30N 37°27' E 025°17'2 0.1
2017-Sep-15 16:25N 37°27' E 025°20'0 0.0
2017-Sep-15 15:59N 37°27' E 025°20'0 0.0
2017-Sep-15 15:30N 37°27' E 025°20'0 0.1
2017-Sep-15 15:00N 37°27' E 025°20'3 6.2
2017-Sep-15 14:30N 37°24' E 025°18'4 8.8
2017-Sep-15 14:00N 37°24' E 025°23'2 3.5
2017-Sep-15 13:30N 37°26' E 025°25'0 0.0
2017-Sep-15 13:00N 37°26' E 025°25'0 0.0
2017-Sep-15 12:30N 37°26' E 025°25'0 0.0
2017-Sep-15 12:00N 37°26' E 025°25'0 0.0
2017-Sep-15 11:30N 37°26' E 025°25'0 0.0
2017-Sep-15 11:00N 37°26' E 025°25'0 0.1
2017-Sep-15 10:30N 37°26' E 025°25'0 0.0
2017-Sep-15 10:00N 37°26' E 025°25'0 0.0
2017-Sep-15 09:30N 37°26' E 025°25'0 0.0
2017-Sep-15 09:00N 37°26' E 025°25'0 0.0
2017-Sep-15 08:30N 37°26' E 025°25'0 0.0
2017-Sep-15 08:00N 37°26' E 025°25'1 2.0
2017-Sep-15 07:30N 37°25' E 025°25'3 6.8
2017-Sep-15 07:00N 37°25' E 025°20'0 0.1
2017-Sep-15 06:30N 37°25' E 025°20'0 0.0
2017-Sep-15 05:58N 37°25' E 025°20'0 0.0
2017-Sep-15 05:30N 37°25' E 025°20'0 0.0
2017-Sep-15 05:00N 37°25' E 025°20'0 0.0
2017-Sep-15 04:30N 37°25' E 025°20'0 0.0
2017-Sep-15 04:00N 37°25' E 025°20'0 0.0
2017-Sep-15 03:30N 37°25' E 025°20'0 0.0
2017-Sep-15 03:00N 37°25' E 025°20'0 0.0
2017-Sep-15 02:30N 37°25' E 025°20'0 0.0
2017-Sep-15 02:00N 37°25' E 025°20'0 0.0
2017-Sep-15 01:30N 37°25' E 025°20'0 0.0
2017-Sep-15 01:00N 37°25' E 025°20'0 0.0
2017-Sep-15 00:30N 37°25' E 025°20'0 0.0
2017-Sep-15 00:00N 37°25' E 025°20'0 0.0
2017-Sep-14 23:30N 37°25' E 025°20'0 0.0
2017-Sep-14 23:00N 37°25' E 025°20'0 0.0
2017-Sep-14 22:30N 37°25' E 025°20'0 0.0
2017-Sep-14 22:00N 37°25' E 025°20'0 0.0
2017-Sep-14 21:30N 37°25' E 025°20'0 0.1
2017-Sep-14 21:00N 37°25' E 025°20'0 0.0
2017-Sep-14 20:30N 37°25' E 025°20'0 0.0
2017-Sep-14 20:00N 37°25' E 025°20'0 0.0
2017-Sep-14 19:30N 37°25' E 025°20'0 0.0
2017-Sep-14 19:00N 37°25' E 025°20'0 0.0
2017-Sep-14 18:30N 37°25' E 025°20'0 0.1
2017-Sep-14 18:00N 37°25' E 025°20'0 0.0
2017-Sep-14 17:30N 37°25' E 025°20'0 0.0
2017-Sep-14 17:00N 37°25' E 025°20'0 0.1
2017-Sep-14 16:30N 37°25' E 025°20'0 0.1
2017-Sep-14 16:00N 37°25' E 025°20'0 0.1
2017-Sep-14 15:30N 37°25' E 025°20'0 0.0
2017-Sep-14 15:00N 37°25' E 025°20'  

Dump ship's entire track history